To NAV CANADA Home Page Login to a new session Search on AWWS site Feedback and Comments Disclaimer Vers la page française équivalente Tips FAQ What's new on the site To the Forecasts and Observations / NOTAM section To "File a Flight Plan" website Publications and other links Update of the User's profile FIC Telephone Numbers My Weather Data Folder Route Weather Data Regional Weather Data Local Weather Data To the Forecasts and Observations / NOTAM section
Request Generated 09/25/2016 at 15:38:57 UTC . Weather information available at that time is displayed.

METAR/TAF

MARYS HARBOUR/NL    (show WxCam)

SPECI CYMH 251521Z AUTO 32010G20KT 9SM -RA SCT016 BKN024 BKN032
OVC048 06/06 A2953 RMK SLP002=
METAR CYMH 251500Z AUTO 33015G20KT 9SM -RA SCT018 BKN036 BKN049
OVC095 06/06 A2953 RMK SLP002=
SPECI CYMH 251457Z AUTO 32012G19KT 8SM -RA SCT016 BKN033 BKN049
OVC100 06/06 A2953 RMK SLP002=
SPECI CYMH 251452Z AUTO 32014G22KT 7SM -RA BKN016 BKN029 BKN041
OVC095 06/06 A2953 RMK SLP003=
SPECI CYMH 251450Z AUTO 32013G22KT 7SM -RA SCT016 BKN025 BKN038
OVC095 06/06 A2953 RMK SLP002=
SPECI CYMH 251433Z AUTO 32011G17KT 6SM -RA BR BKN015 OVC110 06/06
A2953 RMK SLP002=
SPECI CYMH 251429Z AUTO 32011G18KT 3SM -RA BR BKN013 BKN095 OVC120
06/06 A2953 RMK SLP003=
SPECI CYMH 251427Z AUTO 32012G18KT 2 1/2SM -RA BR BKN013 BKN095
BKN120 OVC140 06/06 A2953 RMK SLP003=
SPECI CYMH 251416Z AUTO 31013G19KT 2 1/4SM -RA BR BKN015 BKN090
BKN120 OVC140 06/06 A2953 RMK SLP002=
SPECI CYMH 251414Z AUTO 31014G19KT 2 1/2SM -RA BR BKN015 BKN095
OVC120 06/06 A2953 RMK SLP002=
SPECI CYMH 251412Z AUTO 31011G19KT 3SM -RA BR BKN015 BKN095 OVC120
06/06 A2953 RMK SLP002=
SPECI CYMH 251408Z AUTO 31014G19KT 4SM -RA BR SCT015 BKN090 OVC120
06/06 A2953 RMK SLP002=
SPECI CYMH 251405Z AUTO 31015KT 5SM -RA BR BKN015 BKN090 OVC120 06/06
A2953 RMK SLP002=
SPECI CYMH 251404Z AUTO 31015KT 6SM -RA BR SCT013 BKN019 BKN090
OVC120 06/06 A2953 RMK SLP002=
METAR CYMH 251400Z AUTO 31012G20KT 6SM BR BKN013 BKN020 OVC090 07/06
A2953 RMK SLP003=
SPECI CYMH 251307Z AUTO 31011G20KT 9SM BKN015 OVC031 06/04 A2954 RMK
SLP006=
METAR CYMH 251300Z AUTO 30011G21KT 9SM SCT015 OVC031 06/04 A2954 RMK
SLP005=
SPECI CYMH 251259Z AUTO 30013G21KT 9SM SCT015 OVC031 06/04 A2954 RMK
SLP005=

TAF AMD CYMH 251515Z 2515/2602 31012G22KT P6SM OVC025 TEMPO 2515/2518
3SM -RA BR OVC008
FM251800 33015G25KT 3SM -RA BR OVC008 TEMPO 2518/2521 6SM -RA BR
OVC010
BECMG 2518/2520 34020G30KT
FM252100 36020G30KT 3SM -RA BR OVC008 PROB30 2521/2602 11/2SM -RA
BR OVC005
RMK FCST BASED ON AUTO OBS. NXT FCST BY 252000Z=
Your time UTC time
Weather data provided by Environment Canada and NAV CANADA